Terminal Aerodrome Forecast
Issued by NWS

Home | Current Version | Previous Version | Graphics & Text | Print | Product List | Glossary On
Versions: 1 2 3 4 5 6 7 8 9 10 11 12 13 14 15 16 17 18 19 20 21 22 23 24 25 26 27 28 29 30 31 32 33 34 35
553
FTUS43 KGRB 241859 AAA
TAFATW
TAF AMD
KATW 241859Z 2419/2518 04008KT 4SM -RA OVC007
     FM250000 05009KT 2SM RA OVC003
     FM250600 04010G18KT 3SM -RA OVC005
     FM251500 05013G22KT P6SM OVC003=

USA.gov is the U.S. government's official web portal to all federal, state and local government web resources and services.